Time;durP1;ratioP1;P1;durP2;ratioP2;P2;SDS_P1;SDS_P2;PMS_P1;PMS_P2;Temp;Humidity;BMP_temperature;BMP_pressure;BME280_temperature;BME280_humidity;BME280_pressure;Samples;Min_cycle;Max_cycle;Signal;HPM_P1;HPM_P2
2023/05/22 00:01:50;;;;;;;3.00;2.60;;;;;;;11.60;66.56;96865.98;109106;1266;22480;-79
2023/05/22 00:04:21;;;;;;;3.70;2.60;;;;;;;11.54;66.50;96861.88;109121;1274;24192;-79
2023/05/22 00:06:55;;;;;;;3.90;2.90;;;;;;;11.54;66.54;96864.53;109095;1270;22515;-79
2023/05/22 00:09:26;;;;;;;8.10;3.00;;;;;;;11.49;66.48;96861.48;109114;1274;22741;-79
2023/05/22 00:11:57;;;;;;;5.80;3.10;;;;;;;11.51;66.62;96860.40;109063;1268;22511;-79
2023/05/22 00:14:28;;;;;;;4.50;2.40;;;;;;;11.47;66.51;96860.66;109114;1274;22533;-78
2023/05/22 00:16:59;;;;;;;3.70;2.90;;;;;;;11.46;66.53;96860.34;109108;1272;22585;-79
2023/05/22 00:19:31;;;;;;;5.10;3.30;;;;;;;11.40;66.85;96855.92;109158;1274;22602;-79
2023/05/22 00:22:02;;;;;;;5.10;3.20;;;;;;;11.35;66.96;96859.25;109123;1274;22482;-78
2023/05/22 00:24:37;;;;;;;4.70;2.90;;;;;;;11.35;66.71;96856.33;109139;1273;22518;-79
2023/05/22 00:27:08;;;;;;;4.40;2.30;;;;;;;11.36;66.55;96855.48;109081;1250;22685;-79
2023/05/22 00:29:39;;;;;;;4.40;2.80;;;;;;;11.33;66.54;96852.85;109131;1259;22628;-79
2023/05/22 00:32:10;;;;;;;5.40;2.90;;;;;;;11.27;66.59;96856.71;109076;1268;24212;-79
2023/05/22 00:34:41;;;;;;;4.90;2.80;;;;;;;11.18;66.75;96856.51;109122;1269;22486;-79
2023/05/22 00:37:12;;;;;;;4.70;2.50;;;;;;;11.08;66.65;96853.21;109114;1273;22525;-79
2023/05/22 00:39:42;;;;;;;3.90;2.70;;;;;;;10.91;66.57;96855.18;109119;1270;24211;-78
2023/05/22 00:42:13;;;;;;;3.90;3.30;;;;;;;10.73;66.83;96852.30;109085;1269;22526;-78
2023/05/22 00:44:44;;;;;;;4.20;3.10;;;;;;;10.70;67.19;96853.81;109124;1271;22518;-78
2023/05/22 00:47:15;;;;;;;7.00;3.10;;;;;;;10.71;67.36;96852.00;109125;1274;22541;-78
2023/05/22 00:49:47;;;;;;;4.30;3.10;;;;;;;10.76;67.50;96852.66;109100;1266;24272;-78
2023/05/22 00:52:21;;;;;;;3.00;2.60;;;;;;;10.80;67.31;96853.53;109063;1273;22518;-78
2023/05/22 00:54:53;;;;;;;4.30;2.70;;;;;;;10.84;67.27;96852.98;109105;1270;22461;-78
2023/05/22 00:57:27;;;;;;;5.40;3.10;;;;;;;10.87;67.32;96855.31;109066;1274;22591;-78
2023/05/22 00:59:59;;;;;;;4.90;2.60;;;;;;;10.87;67.45;96852.18;109102;1266;22567;-78
2023/05/22 01:02:32;;;;;;;3.90;2.60;;;;;;;10.87;67.31;96854.68;109095;1273;22601;-78
2023/05/22 01:05:05;;;;;;;3.40;2.80;;;;;;;10.88;67.15;96854.61;109105;1272;22627;-78
2023/05/22 01:07:36;;;;;;;6.30;3.00;;;;;;;10.90;67.15;96852.59;109101;1268;24337;-78
2023/05/22 01:10:11;;;;;;;5.00;2.80;;;;;;;10.87;67.14;96851.34;109120;1270;22566;-78
2023/05/22 01:12:55;;;;;;;6.40;3.30;;;;;;;10.89;67.23;96850.16;109133;1270;22517;-78
2023/05/22 01:15:33;;;;;;;4.80;3.30;;;;;;;10.86;67.17;96849.48;109049;1270;24312;-78
2023/05/22 01:18:18;;;;;;;3.30;2.70;;;;;;;10.76;67.13;96849.73;109090;1270;22480;-78
2023/05/22 01:20:58;;;;;;;3.90;2.40;;;;;;;10.73;67.33;96846.38;109076;1270;23792;-78
2023/05/22 01:24:00;;;;;;;7.10;3.60;;;;;;;10.75;67.34;96848.96;109102;1268;24939;-78
2023/05/22 01:27:04;;;;;;;5.20;2.70;;;;;;;10.75;67.26;96848.05;109152;1274;22573;-78
2023/05/22 01:29:46;;;;;;;3.60;2.80;;;;;;;10.70;67.37;96845.16;109100;1268;24347;-78
2023/05/22 01:32:20;;;;;;;5.40;2.80;;;;;;;10.68;67.41;96845.46;109086;1274;22480;-78
2023/05/22 01:34:56;;;;;;;7.70;2.90;;;;;;;10.65;67.39;96844.48;109074;1268;22485;-78
2023/05/22 01:37:29;;;;;;;6.40;2.90;;;;;;;10.56;67.32;96842.25;109109;1268;22518;-78
2023/05/22 01:40:05;;;;;;;5.10;2.70;;;;;;;10.50;67.48;96844.03;109115;1270;25407;-78
2023/05/22 01:42:36;;;;;;;7.10;2.80;;;;;;;10.52;67.68;96845.08;109096;1270;22548;-78
2023/05/22 01:45:11;;;;;;;4.70;3.00;;;;;;;10.44;67.44;96841.19;109077;1270;22517;-78
2023/05/22 01:47:42;;;;;;;4.50;2.80;;;;;;;10.38;67.61;96838.50;109094;1266;22524;-78
2023/05/22 01:50:14;;;;;;;9.90;3.20;;;;;;;10.39;67.63;96839.19;109088;1274;23699;-78
2023/05/22 01:52:53;;;;;;;4.30;2.60;;;;;;;10.34;67.63;96835.18;109138;1266;25552;-78
2023/05/22 01:55:28;;;;;;;4.10;2.90;;;;;;;10.32;67.71;96839.33;109127;1274;23732;-78
2023/05/22 01:58:10;;;;;;;4.70;2.90;;;;;;;10.26;67.70;96834.52;109075;1274;23819;-78
2023/05/22 02:00:44;;;;;;;3.60;2.70;;;;;;;10.24;67.91;96836.05;109088;1268;22516;-78
2023/05/22 02:03:19;;;;;;;4.10;3.00;;;;;;;10.23;67.76;96838.18;109132;1270;22560;-78
2023/05/22 02:05:55;;;;;;;4.70;3.40;;;;;;;10.17;67.60;96837.98;109149;1266;22512;-78
2023/05/22 02:08:27;;;;;;;5.00;3.00;;;;;;;9.98;67.70;96839.81;109116;1274;22556;-78
2023/05/22 02:11:00;;;;;;;4.50;2.70;;;;;;;9.95;67.99;96839.65;109080;1266;24899;-78
2023/05/22 02:13:31;;;;;;;4.50;2.60;;;;;;;9.82;68.05;96837.24;109119;1274;22513;-78
2023/05/22 02:16:04;;;;;;;5.10;2.80;;;;;;;9.76;68.38;96835.83;109076;1270;22555;-78
2023/05/22 02:18:40;;;;;;;4.20;2.90;;;;;;;9.77;68.48;96834.29;109112;1269;23833;-78
2023/05/22 02:21:11;;;;;;;5.30;2.50;;;;;;;9.78;68.37;96835.61;109088;1274;22510;-78
2023/05/22 02:23:42;;;;;;;3.80;2.80;;;;;;;9.75;68.36;96834.56;109075;1266;25414;-78
2023/05/22 02:26:13;;;;;;;5.80;3.30;;;;;;;9.67;68.34;96838.73;109068;1272;22663;-78
2023/05/22 02:28:44;;;;;;;8.10;3.20;;;;;;;9.59;68.60;96839.55;109077;1269;22608;-78
2023/05/22 02:31:17;;;;;;;4.60;2.30;;;;;;;9.55;68.84;96834.56;109022;1274;25428;-78
2023/05/22 02:33:50;;;;;;;5.30;2.80;;;;;;;9.50;68.97;96832.40;109089;1274;22510;-78
2023/05/22 02:36:25;;;;;;;5.50;2.70;;;;;;;9.34;68.65;96828.95;109114;1269;22529;-78
2023/05/22 02:38:55;;;;;;;5.10;2.60;;;;;;;9.10;69.21;96829.64;109069;1274;22592;-78
2023/05/22 02:41:26;;;;;;;5.70;2.50;;;;;;;9.00;69.73;96823.89;109093;1267;22501;-78
2023/05/22 02:43:57;;;;;;;4.90;3.10;;;;;;;9.01;70.21;96826.86;109054;1274;22644;-78
2023/05/22 02:46:28;;;;;;;6.50;2.50;;;;;;;9.16;70.56;96829.01;109094;1274;22569;-78
2023/05/22 02:48:59;;;;;;;3.70;2.90;;;;;;;9.34;70.24;96823.40;109082;1270;22524;-77
2023/05/22 02:51:32;;;;;;;4.30;3.00;;;;;;;9.46;70.15;96823.52;109068;1270;26277;-78
2023/05/22 02:54:04;;;;;;;3.80;2.70;;;;;;;9.50;70.01;96820.17;109085;1272;25418;-78
2023/05/22 02:56:37;;;;;;;3.60;2.70;;;;;;;9.56;69.93;96821.50;109146;1266;22576;-78
2023/05/22 02:59:10;;;;;;;5.00;3.10;;;;;;;9.60;70.00;96821.82;109123;1274;22527;-78
2023/05/22 03:01:43;;;;;;;5.90;2.90;;;;;;;9.62;69.83;96825.57;109082;1274;24193;-78
2023/05/22 03:04:15;;;;;;;4.60;3.10;;;;;;;9.65;69.83;96823.81;109104;1269;22472;-78
2023/05/22 03:06:46;;;;;;;5.50;3.30;;;;;;;9.68;69.70;96827.04;109090;1272;22631;-78
2023/05/22 03:09:21;;;;;;;5.50;3.30;;;;;;;9.64;69.41;96830.59;109120;1269;22515;-78
2023/05/22 03:11:57;;;;;;;5.30;2.90;;;;;;;9.55;69.36;96826.89;109086;1268;22540;-78
2023/05/22 03:14:29;;;;;;;4.90;2.90;;;;;;;9.52;69.54;96823.77;109107;1269;24020;-78
2023/05/22 03:17:01;;;;;;;5.50;3.40;;;;;;;9.50;69.59;96824.67;109126;1271;22536;-78
2023/05/22 03:19:32;;;;;;;6.00;2.70;;;;;;;9.49;69.78;96825.36;109095;1270;22695;-78
2023/05/22 03:22:03;;;;;;;3.30;2.60;;;;;;;9.50;69.75;96825.58;109107;1272;22522;-78
2023/05/22 03:24:34;;;;;;;3.50;2.80;;;;;;;9.51;69.76;96824.09;109170;1274;24433;-78
2023/05/22 03:27:06;;;;;;;4.60;2.70;;;;;;;9.55;69.92;96828.36;109085;1274;22671;-78
2023/05/22 03:29:39;;;;;;;4.60;2.90;;;;;;;9.58;69.98;96831.40;109126;1274;22534;-78
2023/05/22 03:32:10;;;;;;;4.10;2.70;;;;;;;9.65;70.02;96826.62;109133;1266;24186;-78
2023/05/22 03:34:42;;;;;;;10.10;3.30;;;;;;;9.79;69.90;96825.43;109077;1274;22874;-79
2023/05/22 03:37:16;;;;;;;3.30;2.40;;;;;;;9.88;69.76;96821.66;109116;1274;22539;-79
2023/05/22 03:39:47;;;;;;;3.80;2.60;;;;;;;9.96;69.54;96823.60;109129;1268;22636;-79
2023/05/22 03:42:18;;;;;;;4.10;3.00;;;;;;;10.05;69.47;96818.71;109118;1274;23842;-79
2023/05/22 03:44:51;;;;;;;5.30;3.00;;;;;;;10.13;69.56;96823.18;109155;1270;22513;-79
2023/05/22 03:47:22;;;;;;;6.10;2.80;;;;;;;10.23;69.48;96818.47;109132;1268;22620;-79
2023/05/22 03:49:56;;;;;;;5.20;2.90;;;;;;;10.32;69.40;96822.42;109107;1271;22585;-79
2023/05/22 03:52:26;;;;;;;4.20;2.60;;;;;;;10.45;69.61;96816.48;109144;1272;25433;-79
2023/05/22 03:54:57;;;;;;;3.90;2.50;;;;;;;10.60;70.04;96820.23;109129;1269;22566;-79
2023/05/22 03:57:28;;;;;;;4.40;3.10;;;;;;;10.73;70.19;96817.72;109135;1274;22515;-79
2023/05/22 04:00:08;;;;;;;5.50;2.50;;;;;;;10.84;70.40;96811.52;109101;1270;24196;-79
2023/05/22 04:02:38;;;;;;;;;;;;;;;10.92;70.58;96813.95;109084;1269;22666;-79
2023/05/22 04:05:10;;;;;;;7.20;3.20;;;;;;;10.94;70.69;96815.84;109069;1269;22516;-79
2023/05/22 04:07:44;;;;;;;4.10;2.50;;;;;;;10.87;70.30;96811.55;109107;1266;22579;-79
2023/05/22 04:10:15;;;;;;;4.50;2.70;;;;;;;10.76;70.29;96820.15;109116;1266;23094;-79
2023/05/22 04:12:46;;;;;;;4.70;3.00;;;;;;;10.70;70.62;96823.73;109108;1274;22623;-79
2023/05/22 04:15:17;;;;;;;4.10;2.70;;;;;;;10.73;71.02;96821.55;109061;1270;22550;-79
2023/05/22 04:17:51;;;;;;;3.60;2.50;;;;;;;10.82;71.78;96815.39;109128;1250;24262;-79
2023/05/22 04:20:26;;;;;;;4.70;2.80;;;;;;;10.97;71.71;96814.56;109044;1271;22678;-80
2023/05/22 04:22:57;;;;;;;4.70;2.50;;;;;;;11.17;71.75;96810.98;109129;1266;24250;-79
2023/05/22 04:25:30;;;;;;;5.10;2.80;;;;;;;11.43;72.26;96811.36;109074;1266;22525;-79
2023/05/22 04:28:02;;;;;;;3.30;2.70;;;;;;;11.67;71.62;96809.39;109095;1272;22525;-79
2023/05/22 04:30:36;;;;;;;5.50;2.70;;;;;;;11.90;71.92;96807.23;109082;1250;22573;-79
2023/05/22 04:33:09;;;;;;;4.80;2.80;;;;;;;12.17;72.08;96806.80;109114;1271;22695;-79
2023/05/22 04:35:41;;;;;;;3.70;2.60;;;;;;;12.43;72.24;96812.23;109073;1267;22584;-79
2023/05/22 04:38:12;;;;;;;5.80;2.90;;;;;;;12.67;71.87;96811.17;109102;1274;22572;-79
2023/05/22 04:40:46;;;;;;;4.10;2.60;;;;;;;12.91;71.35;96807.52;109090;1270;22791;-79
2023/05/22 04:43:18;;;;;;;7.20;3.30;;;;;;;13.09;70.84;96811.03;109076;1269;22928;-79
2023/05/22 04:45:53;;;;;;;4.20;2.90;;;;;;;13.25;70.61;96810.92;109110;1273;22524;-79
2023/05/22 04:48:25;;;;;;;5.70;3.50;;;;;;;13.38;70.70;96809.66;109110;1270;22611;-79
2023/05/22 04:51:01;;;;;;;5.10;3.20;;;;;;;13.57;70.60;96812.48;109064;1274;22629;-79
2023/05/22 04:53:35;;;;;;;4.10;3.20;;;;;;;13.79;69.36;96813.23;109124;1270;23135;-79
2023/05/22 04:56:10;;;;;;;5.30;2.90;;;;;;;14.04;69.28;96809.99;109106;1254;22524;-79
2023/05/22 04:58:47;;;;;;;5.50;3.10;;;;;;;14.45;69.26;96810.14;109076;1271;23664;-79
2023/05/22 05:01:18;;;;;;;3.60;3.20;;;;;;;15.93;70.71;96812.70;109075;1270;23667;-79
2023/05/22 05:03:49;;;;;;;4.90;2.80;;;;;;;18.42;70.14;96810.55;109121;1269;23699;-79
2023/05/22 05:06:21;;;;;;;3.50;2.80;;;;;;;20.94;66.64;96801.55;109059;1270;22578;-80
2023/05/22 05:08:52;;;;;;;3.90;2.60;;;;;;;23.18;62.46;96800.83;109122;1273;22523;-80
2023/05/22 05:11:24;;;;;;;5.20;2.90;;;;;;;24.92;58.33;96795.78;109106;1266;22511;-80
2023/05/22 05:13:55;;;;;;;5.30;2.70;;;;;;;26.53;56.00;96797.98;109104;1269;22601;-80
2023/05/22 05:16:27;;;;;;;5.50;2.80;;;;;;;27.86;51.32;96797.38;109129;1274;23358;-80
2023/05/22 05:18:58;;;;;;;4.40;2.80;;;;;;;28.28;47.21;96793.79;109090;1272;22542;-80
2023/05/22 05:21:32;;;;;;;5.10;2.70;;;;;;;28.74;45.29;96794.48;109084;1266;22528;-80
2023/05/22 05:24:03;;;;;;;4.10;2.60;;;;;;;29.30;43.48;96793.95;109075;1269;22458;-80
2023/05/22 05:26:39;;;;;;;4.90;2.90;;;;;;;29.62;40.78;96798.77;109095;1269;25435;-80
2023/05/22 05:29:11;;;;;;;4.40;2.40;;;;;;;29.89;39.68;96799.23;109078;1266;22489;-80
2023/05/22 05:31:42;;;;;;;4.90;2.50;;;;;;;30.12;37.57;96800.60;109080;1274;23819;-80
2023/05/22 05:34:13;;;;;;;4.10;2.60;;;;;;;30.63;37.91;96799.26;109131;1268;25411;-80
2023/05/22 05:36:46;;;;;;;3.40;2.20;;;;;;;31.35;36.71;96797.36;109073;1274;24205;-78
2023/05/22 05:39:17;;;;;;;4.30;2.80;;;;;;;31.51;33.88;96794.89;109098;1266;24145;-78
2023/05/22 05:41:48;;;;;;;4.00;2.60;;;;;;;31.60;33.58;96795.48;109032;1274;23510;-78
2023/05/22 05:44:20;;;;;;;4.60;2.50;;;;;;;31.65;33.54;96793.94;109110;1270;22720;-78
2023/05/22 05:46:51;;;;;;;2.60;2.30;;;;;;;32.19;31.81;96789.02;109082;1269;24225;-78
2023/05/22 05:49:26;;;;;;;4.10;2.80;;;;;;;31.96;30.27;96792.50;109048;1274;22471;-78
2023/05/22 05:51:57;;;;;;;3.20;2.40;;;;;;;31.15;27.96;96792.64;109073;1274;22493;-79
2023/05/22 05:54:28;;;;;;;3.00;2.50;;;;;;;30.66;30.24;96789.45;109113;1267;25274;-79
2023/05/22 05:57:01;;;;;;;3.80;2.60;;;;;;;32.24;30.98;96787.36;109062;1274;22941;-79
2023/05/22 05:59:35;;;;;;;4.80;2.60;;;;;;;32.50;27.38;96789.02;109009;1274;22538;-79
2023/05/22 06:02:06;;;;;;;6.40;2.90;;;;;;;32.70;29.53;96784.73;108996;1269;22759;-79
2023/05/22 06:04:37;;;;;;;5.10;2.50;;;;;;;33.93;29.26;96784.05;109074;1274;24190;-79
2023/05/22 06:07:08;;;;;;;3.00;2.40;;;;;;;34.94;28.35;96790.75;109020;1274;22522;-79
2023/05/22 06:09:39;;;;;;;3.60;2.30;;;;;;;36.10;28.66;96786.76;108956;1272;22586;-80
2023/05/22 06:12:12;;;;;;;4.40;2.60;;;;;;;37.47;28.16;96784.11;108964;1262;24496;-80
2023/05/22 06:14:43;;;;;;;2.50;2.30;;;;;;;38.60;27.52;96782.95;109064;1274;25252;-80
2023/05/22 06:17:14;;;;;;;4.40;2.20;;;;;;;38.77;23.94;96780.73;109079;1272;22466;-80
2023/05/22 06:19:50;;;;;;;3.10;2.40;;;;;;;38.91;25.47;96777.39;109118;1272;23343;-80
2023/05/22 06:22:24;;;;;;;6.10;2.60;;;;;;;39.79;25.25;96783.53;109090;1274;22556;-79
2023/05/22 06:24:57;;;;;;;4.30;2.50;;;;;;;40.53;24.25;96779.66;109117;1267;24185;-79
2023/05/22 06:27:28;;;;;;;5.20;2.30;;;;;;;40.82;23.90;96778.94;109121;1269;22540;-79
2023/05/22 06:30:00;;;;;;;2.90;2.50;;;;;;;40.54;21.21;96777.88;109084;1272;22582;-80
2023/05/22 06:32:34;;;;;;;4.80;2.30;;;;;;;39.82;22.33;96775.63;109075;1267;22637;-79
2023/05/22 06:35:10;;;;;;;2.50;2.30;;;;;;;40.45;22.54;96774.86;109168;1274;22513;-80
2023/05/22 06:37:41;;;;;;;5.00;2.40;;;;;;;40.99;22.82;96772.75;109179;1267;22719;-80
2023/05/22 06:40:13;;;;;;;3.40;2.40;;;;;;;42.03;22.33;96775.76;109149;1274;23811;-80
2023/05/22 06:42:45;;;;;;;2.70;2.30;;;;;;;43.01;21.78;96780.65;109135;1272;22473;-80
2023/05/22 06:45:18;;;;;;;6.00;2.70;;;;;;;43.54;20.04;96778.45;109155;1274;22657;-80
2023/05/22 06:47:56;;;;;;;3.80;2.30;;;;;;;42.22;18.57;96781.21;109118;1272;23881;-81
2023/05/22 06:50:25;;;;;;;;;;;;;;;41.93;20.71;96781.64;109149;1272;22602;-81
2023/05/22 06:52:56;;;;;;;3.50;1.90;;;;;;;42.74;20.52;96779.02;109060;1272;24083;-80
2023/05/22 06:55:29;;;;;;;4.10;2.20;;;;;;;42.21;18.21;96779.48;109125;1269;23300;-81
2023/05/22 06:57:59;;;;;;;4.50;2.50;;;;;;;42.47;19.97;96778.20;109067;1267;22465;-81
2023/05/22 07:00:31;;;;;;;6.30;2.80;;;;;;;43.01;18.72;96778.63;109074;1274;24627;-81
2023/05/22 07:03:02;;;;;;;3.20;2.30;;;;;;;42.41;18.59;96778.88;109052;1273;22657;-82
2023/05/22 07:05:34;;;;;;;4.00;2.20;;;;;;;42.30;18.68;96778.54;109089;1252;22714;-81
2023/05/22 07:08:05;;;;;;;3.70;2.20;;;;;;;42.99;19.27;96777.38;109076;1272;22624;-81
2023/05/22 07:10:36;;;;;;;2.80;2.40;;;;;;;43.46;18.68;96779.06;109075;1254;25315;-81
2023/05/22 07:13:07;;;;;;;4.70;2.60;;;;;;;43.93;19.24;96776.36;109096;1274;22475;-81
2023/05/22 07:15:38;;;;;;;4.80;2.60;;;;;;;45.02;18.95;96779.79;109070;1272;24023;-81
2023/05/22 07:18:11;;;;;;;5.40;2.60;;;;;;;45.56;18.22;96776.30;109030;1274;25358;-80
2023/05/22 07:20:43;;;;;;;5.40;2.40;;;;;;;46.26;18.41;96771.79;109074;1274;22535;-80
2023/05/22 07:23:14;;;;;;;5.20;2.30;;;;;;;47.06;17.99;96772.02;109072;1274;22507;-80
2023/05/22 07:25:48;;;;;;;3.70;2.50;;;;;;;47.41;17.47;96769.96;109055;1254;23603;-80
2023/05/22 07:28:19;;;;;;;4.10;2.10;;;;;;;47.50;16.97;96768.27;109092;1271;22652;-82
2023/05/22 07:31:21;;;;;;;3.10;2.50;;;;;;;46.67;14.80;96761.93;109071;1274;24237;-80
2023/05/22 07:33:52;;;;;;;5.60;2.20;;;;;;;44.92;16.40;96757.49;109005;1274;23084;-80
2023/05/22 07:36:23;;;;;;;4.00;2.30;;;;;;;44.98;15.29;96759.35;109044;1274;26029;-80
2023/05/22 07:38:54;;;;;;;4.40;2.30;;;;;;;44.18;15.55;96764.30;109053;1274;22515;-80
2023/05/22 07:41:27;;;;;;;3.30;2.20;;;;;;;43.09;13.15;96758.63;108971;1274;24216;-79
2023/05/22 07:43:58;;;;;;;5.10;2.60;;;;;;;39.93;13.95;96760.94;109051;1272;22736;-78
2023/05/22 07:46:29;;;;;;;4.80;2.20;;;;;;;38.24;15.84;96754.11;109012;1267;22622;-77
2023/05/22 07:48:59;;;;;;;2.90;2.60;;;;;;;38.96;16.31;96758.68;109077;1270;22542;-78
2023/05/22 07:51:31;;;;;;;3.60;2.40;;;;;;;38.90;15.69;96754.69;109003;1269;22459;-79
2023/05/22 07:54:04;;;;;;;3.50;2.20;;;;;;;38.99;16.57;96752.24;109084;1272;22512;-79
2023/05/22 07:56:38;;;;;;;2.40;2.20;;;;;;;40.31;16.45;96755.00;109058;1267;25441;-80
2023/05/22 07:59:10;;;;;;;3.40;2.20;;;;;;;40.27;15.75;96758.47;109033;1272;22624;-79
2023/05/22 08:01:42;;;;;;;4.50;2.20;;;;;;;40.93;15.58;96757.11;108973;1274;24277;-80
2023/05/22 08:04:13;;;;;;;2.20;2.10;;;;;;;40.30;15.20;96756.36;109061;1272;22587;-81
2023/05/22 08:06:44;;;;;;;2.80;2.00;;;;;;;40.35;16.11;96754.49;109044;1272;22545;-80
2023/05/22 08:09:15;;;;;;;3.70;2.30;;;;;;;40.77;14.98;96750.89;109009;1272;22479;-80
2023/05/22 08:11:46;;;;;;;3.10;2.40;;;;;;;38.82;15.11;96752.28;109067;1274;25415;-80
2023/05/22 08:14:17;;;;;;;3.30;2.60;;;;;;;38.06;16.37;96751.82;109029;1272;24186;-80
2023/05/22 08:16:48;;;;;;;2.50;2.00;;;;;;;38.40;16.45;96748.16;109070;1274;25532;-79
2023/05/22 08:19:19;;;;;;;3.60;2.30;;;;;;;38.99;15.47;96748.19;109016;1274;22519;-79
2023/05/22 08:21:51;;;;;;;2.70;2.30;;;;;;;39.02;16.39;96750.85;108972;1273;22653;-80
2023/05/22 08:24:27;;;;;;;6.30;2.70;;;;;;;39.60;15.87;96754.02;108978;1274;22619;-81
2023/05/22 08:26:59;;;;;;;2.50;2.30;;;;;;;40.07;15.41;96748.87;109006;1274;22474;-79
2023/05/22 08:29:30;;;;;;;4.20;2.70;;;;;;;39.56;15.96;96746.55;109035;1272;22532;-79
2023/05/22 08:32:01;;;;;;;2.40;2.20;;;;;;;39.73;14.64;96750.88;109050;1251;22560;-79
2023/05/22 08:34:32;;;;;;;4.20;2.40;;;;;;;37.83;14.58;96750.83;109064;1272;22520;-80
2023/05/22 08:37:04;;;;;;;5.70;2.70;;;;;;;35.96;16.07;96751.80;109046;1275;24638;-79
2023/05/22 08:39:35;;;;;;;5.80;2.50;;;;;;;35.72;17.39;96750.02;109032;1270;22544;-79
2023/05/22 08:42:08;;;;;;;4.00;2.20;;;;;;;37.16;17.74;96744.20;108974;1274;25287;-80
2023/05/22 08:44:39;;;;;;;5.20;2.90;;;;;;;37.68;17.04;96745.27;108966;1274;26464;-79
2023/05/22 08:47:12;;;;;;;2.80;2.10;;;;;;;38.28;16.72;96743.77;109017;1274;25931;-82
2023/05/22 08:49:44;;;;;;;4.60;2.70;;;;;;;37.22;15.58;96751.36;109007;1274;22656;-82
2023/05/22 08:52:22;;;;;;;3.70;2.30;;;;;;;36.46;17.30;96747.45;109076;1273;22961;-81
2023/05/22 08:54:52;;;;;;;;;;;;;;;36.20;16.87;96748.84;109037;1272;23857;-77
2023/05/22 08:57:25;;;;;;;4.20;2.50;;;;;;;35.52;18.34;96751.42;109040;1274;25433;-80
2023/05/22 08:59:56;;;;;;;3.60;2.60;;;;;;;35.41;18.70;96749.54;109055;1272;22571;-80
2023/05/22 09:02:28;;;;;;;3.60;2.70;;;;;;;32.69;18.30;96748.45;109069;1274;25223;-81
2023/05/22 09:05:00;;;;;;;3.00;2.60;;;;;;;29.09;21.55;96743.65;108995;1274;23206;-80
2023/05/22 09:07:31;;;;;;;4.90;2.80;;;;;;;27.86;23.60;96743.98;109003;1274;23756;-81
2023/05/22 09:10:04;;;;;;;5.20;2.90;;;;;;;27.56;24.75;96741.41;109079;1274;22566;-82
2023/05/22 09:12:37;;;;;;;4.60;2.70;;;;;;;27.49;25.32;96739.06;109035;1272;24186;-80
2023/05/22 09:15:15;;;;;;;3.50;3.00;;;;;;;26.87;25.53;96743.99;109034;1275;22473;-79
2023/05/22 09:17:47;;;;;;;4.00;2.90;;;;;;;26.01;26.57;96742.61;109042;1270;22653;-79
2023/05/22 09:20:18;;;;;;;4.70;2.90;;;;;;;25.98;27.22;96748.09;109014;1267;25339;-78
2023/05/22 09:22:49;;;;;;;4.10;2.60;;;;;;;25.41;28.69;96743.78;109033;1272;22492;-79
2023/05/22 09:25:21;;;;;;;5.80;3.30;;;;;;;24.41;28.80;96745.52;109055;1273;22521;-80
2023/05/22 09:27:53;;;;;;;6.40;3.30;;;;;;;23.68;29.94;96745.95;108995;1273;23090;-80
2023/05/22 09:30:24;;;;;;;5.90;3.00;;;;;;;23.49;30.25;96744.50;109036;1275;24291;-80
2023/05/22 09:32:56;;;;;;;3.90;2.80;;;;;;;23.65;30.84;96735.77;109005;1271;22553;-81
2023/05/22 09:35:31;;;;;;;6.30;2.80;;;;;;;24.15;31.14;96734.53;109008;1274;22538;-80
2023/05/22 09:38:02;;;;;;;6.80;2.90;;;;;;;24.21;30.45;96734.39;108913;1274;122325;-80
2023/05/22 09:40:37;;;;;;;5.10;3.00;;;;;;;23.94;30.52;96731.32;109096;1274;22629;-81
2023/05/22 09:43:09;;;;;;;6.10;2.80;;;;;;;23.74;30.73;96729.36;109119;1272;23344;-80
2023/05/22 09:45:40;;;;;;;3.80;2.90;;;;;;;23.40;30.42;96729.44;109095;1274;22612;-81
2023/05/22 09:48:12;;;;;;;4.10;2.90;;;;;;;22.64;32.08;96730.71;109135;1271;23737;-80
2023/05/22 09:50:46;;;;;;;6.50;3.40;;;;;;;22.13;31.96;96732.40;109114;1270;22522;-81
2023/05/22 09:53:19;;;;;;;6.60;3.10;;;;;;;21.83;33.20;96730.05;109097;1267;22534;-80
2023/05/22 09:55:53;;;;;;;3.30;2.70;;;;;;;22.03;33.57;96730.45;109098;1273;22514;-80
2023/05/22 09:58:26;;;;;;;5.30;2.90;;;;;;;21.87;33.34;96730.06;109061;1274;22483;-81
2023/05/22 10:01:00;;;;;;;4.30;3.30;;;;;;;21.55;34.19;96723.77;109068;1273;24974;-81
2023/05/22 10:03:34;;;;;;;3.30;2.70;;;;;;;21.76;34.29;96723.92;108988;1273;22584;-80
2023/05/22 10:06:11;;;;;;;4.90;3.00;;;;;;;21.74;34.11;96724.79;109017;1274;22512;-80
2023/05/22 10:08:52;;;;;;;5.00;3.00;;;;;;;21.61;33.80;96723.77;109075;1272;23802;-80
2023/05/22 10:11:29;;;;;;;4.20;3.00;;;;;;;21.55;33.81;96724.55;109047;1270;22530;-80
2023/05/22 10:14:03;;;;;;;5.00;3.00;;;;;;;21.95;34.58;96724.39;109074;1269;22593;-81
2023/05/22 10:16:36;;;;;;;4.60;2.50;;;;;;;22.38;33.69;96721.04;109101;1275;22524;-82
2023/05/22 10:19:09;;;;;;;7.50;2.70;;;;;;;22.21;31.96;96720.48;109109;1270;22540;-81
2023/05/22 10:21:41;;;;;;;5.70;2.80;;;;;;;21.67;32.41;96721.38;109127;1274;22537;-80
2023/05/22 10:24:18;;;;;;;4.30;2.50;;;;;;;21.32;33.11;96717.39;108908;1273;22512;-81
2023/05/22 10:26:53;;;;;;;3.50;2.50;;;;;;;21.19;34.13;96713.09;108924;1276;22635;-80
2023/05/22 10:29:31;;;;;;;4.70;3.10;;;;;;;21.14;35.65;96715.02;108910;1271;22479;-80
2023/05/22 10:32:09;;;;;;;5.10;2.60;;;;;;;21.30;35.87;96710.63;108959;1271;22557;-81
2023/05/22 10:34:51;;;;;;;4.10;2.80;;;;;;;21.42;34.43;96713.12;108973;1276;22642;-80
2023/05/22 10:37:37;;;;;;;6.30;2.90;;;;;;;21.64;36.30;96709.37;108999;1276;22534;-81
2023/05/22 10:40:10;;;;;;;7.80;3.20;;;;;;;22.17;36.81;96704.65;108918;1276;22536;-80
2023/05/22 10:42:43;;;;;;;4.90;2.70;;;;;;;22.55;36.71;96701.88;108914;1270;25270;-81
2023/05/22 10:45:14;;;;;;;3.70;2.90;;;;;;;22.61;34.79;96701.77;108921;1276;24177;-80
2023/05/22 10:47:45;;;;;;;3.60;2.70;;;;;;;22.42;35.58;96702.21;108904;1276;22528;-80
2023/05/22 10:50:19;;;;;;;4.00;2.70;;;;;;;22.40;35.60;96694.69;108943;1276;23697;-81
2023/05/22 10:53:10;;;;;;;4.90;2.90;;;;;;;22.41;35.51;96696.86;108908;1276;22499;-81
2023/05/22 10:55:50;;;;;;;4.50;2.90;;;;;;;22.61;35.59;96694.43;108905;1276;24815;-80
2023/05/22 10:58:29;;;;;;;7.40;3.20;;;;;;;22.80;35.31;96693.61;108919;1276;22537;-80
2023/05/22 11:01:17;;;;;;;7.50;2.80;;;;;;;22.87;35.47;96690.30;108900;1276;23200;-80
2023/05/22 11:03:56;;;;;;;3.20;2.70;;;;;;;22.62;35.71;96687.52;108938;1276;22527;-80
2023/05/22 11:06:39;;;;;;;3.80;2.70;;;;;;;22.23;36.65;96687.58;108928;1268;23140;-80
2023/05/22 11:09:32;;;;;;;4.00;3.20;;;;;;;22.24;37.03;96685.91;108906;1276;22608;-79
2023/05/22 11:12:21;;;;;;;4.30;3.20;;;;;;;22.61;37.37;96676.83;108911;1254;22595;-80
2023/05/22 11:14:57;;;;;;;5.10;3.50;;;;;;;22.53;35.96;96681.07;108886;1276;23040;-80
2023/05/22 11:17:31;;;;;;;5.50;3.30;;;;;;;22.24;37.66;96676.18;108939;1276;22531;-79
2023/05/22 11:20:09;;;;;;;5.20;3.20;;;;;;;22.46;37.86;96677.67;108887;1275;24478;-80
2023/05/22 11:22:45;;;;;;;4.90;3.30;;;;;;;22.65;37.09;96676.45;108989;1269;24244;-80
2023/05/22 11:25:20;;;;;;;5.70;3.00;;;;;;;22.81;37.69;96676.94;109081;1274;23786;-79
2023/05/22 11:27:53;;;;;;;4.90;2.90;;;;;;;22.97;37.04;96670.88;109075;1270;22526;-81
2023/05/22 11:30:30;;;;;;;5.00;3.60;;;;;;;23.16;37.73;96668.38;109097;1274;22537;-80
2023/05/22 11:33:02;;;;;;;4.90;2.70;;;;;;;23.39;37.02;96663.77;109116;1274;22484;-81
2023/05/22 11:35:34;;;;;;;3.80;2.50;;;;;;;23.51;36.87;96662.98;109073;1274;22518;-80
2023/05/22 11:38:07;;;;;;;5.00;2.90;;;;;;;23.61;36.98;96660.47;109060;1273;22558;-80
2023/05/22 11:40:39;;;;;;;5.50;3.10;;;;;;;23.72;36.80;96660.56;109064;1268;25447;-80
2023/05/22 11:43:10;;;;;;;6.80;3.30;;;;;;;23.75;36.20;96653.04;109089;1274;22923;-79
2023/05/22 11:45:44;;;;;;;7.40;2.90;;;;;;;23.68;36.81;96660.05;109083;1274;22514;-80
2023/05/22 11:48:19;;;;;;;4.30;2.80;;;;;;;23.75;36.61;96659.84;109099;1272;24180;-80
2023/05/22 11:50:52;;;;;;;5.40;3.00;;;;;;;23.69;36.27;96659.34;109101;1274;25234;-80
2023/05/22 11:53:23;;;;;;;3.00;2.80;;;;;;;23.41;35.54;96658.71;109080;1256;22530;-80
2023/05/22 11:55:54;;;;;;;5.00;2.80;;;;;;;23.23;36.82;96659.84;109072;1274;22593;-79